Time;durP1;ratioP1;P1;durP2;ratioP2;P2;SDS_P1;SDS_P2;PMS_P1;PMS_P2;Temp;Humidity;BMP_temperature;BMP_pressure;BME280_temperature;BME280_humidity;BME280_pressure;Samples;Min_cycle;Max_cycle;Signal;HPM_P1;HPM_P2
2021/07/23 00:02:23;;;;;;;3.95;2.22;;;21.30;62.90;;;;;;5050101;28;20091;-65
2021/07/23 00:04:49;;;;;;;3.33;2.28;;;21.30;63.20;;;;;;5035126;28;20025;-65
2021/07/23 00:07:15;;;;;;;3.70;2.33;;;21.30;63.50;;;;;;5039151;28;20068;-65
2021/07/23 00:09:41;;;;;;;2.78;2.17;;;21.30;63.50;;;;;;5036848;28;20026;-65
2021/07/23 00:12:06;;;;;;;2.47;2.10;;;21.20;63.90;;;;;;5037493;28;20102;-65
2021/07/23 00:14:32;;;;;;;3.20;2.40;;;21.20;64.00;;;;;;5032476;28;20491;-65
2021/07/23 00:16:58;;;;;;;2.95;2.15;;;21.20;64.40;;;;;;5026473;28;20052;-65
2021/07/23 00:19:24;;;;;;;3.10;2.40;;;21.20;65.30;;;;;;5040156;28;20029;-65
2021/07/23 00:21:50;;;;;;;5.18;2.10;;;21.20;64.60;;;;;;5036252;28;20045;-65
2021/07/23 00:24:16;;;;;;;4.30;2.50;;;21.20;64.50;;;;;;5029495;28;20371;-65
2021/07/23 00:26:41;;;;;;;3.30;2.08;;;21.20;64.20;;;;;;5046949;28;20385;-65
2021/07/23 00:29:07;;;;;;;3.75;2.33;;;21.10;63.80;;;;;;5040342;28;20039;-65
2021/07/23 00:31:33;;;;;;;4.13;2.38;;;21.10;63.60;;;;;;5042509;28;20021;-65
2021/07/23 00:33:58;;;;;;;2.55;2.35;;;21.00;63.40;;;;;;5030702;28;20025;-65
2021/07/23 00:36:24;;;;;;;4.45;2.63;;;20.90;63.60;;;;;;5052427;28;20025;-65
2021/07/23 00:38:50;;;;;;;3.13;2.30;;;20.90;63.70;;;;;;5037912;28;20021;-65
2021/07/23 00:41:15;;;;;;;5.75;2.40;;;20.90;64.00;;;;;;5037493;28;20115;-65
2021/07/23 00:43:41;;;;;;;2.80;2.50;;;20.80;64.00;;;;;;5044220;28;20045;-65
2021/07/23 00:46:07;;;;;;;3.05;2.15;;;20.80;64.10;;;;;;5036927;28;20033;-65
2021/07/23 00:48:33;;;;;;;2.65;2.33;;;20.70;64.40;;;;;;5041506;28;20032;-65
2021/07/23 00:50:59;;;;;;;2.60;2.40;;;20.70;64.40;;;;;;5049306;28;20072;-65
2021/07/23 00:53:26;;;;;;;4.75;2.60;;;20.70;64.40;;;;;;5044022;28;20453;-65
2021/07/23 00:55:56;;;;;;;4.55;2.70;;;20.60;64.50;;;;;;5043636;28;20025;-65
2021/07/23 00:58:26;;;;;;;3.33;2.50;;;20.60;64.90;;;;;;5050174;28;20048;-65
2021/07/23 01:00:55;;;;;;;2.57;2.30;;;20.50;64.20;;;;;;5023304;28;20079;-65
2021/07/23 01:03:24;;;;;;;3.78;2.33;;;20.50;64.50;;;;;;5037709;28;20055;-65
2021/07/23 01:05:51;;;;;;;6.20;2.53;;;20.50;64.60;;;;;;5032895;28;20021;-65
2021/07/23 01:08:17;;;;;;;2.53;2.33;;;20.40;64.60;;;;;;5045978;28;20163;-65
2021/07/23 01:10:43;;;;;;;4.70;2.55;;;20.40;64.80;;;;;;5035322;28;20036;-65
2021/07/23 01:13:10;;;;;;;3.30;2.75;;;20.30;64.90;;;;;;5034609;28;20033;-65
2021/07/23 01:15:36;;;;;;;3.40;2.50;;;20.30;65.20;;;;;;5032281;28;20366;-65
2021/07/23 01:18:02;;;;;;;3.53;2.67;;;20.30;65.20;;;;;;5048785;28;20032;-65
2021/07/23 01:20:28;;;;;;;3.67;2.72;;;20.30;65.20;;;;;;5038387;28;20391;-65
2021/07/23 01:22:58;;;;;;;4.78;2.50;;;20.20;65.10;;;;;;5024651;28;20053;-65
2021/07/23 01:25:24;;;;;;;2.60;2.30;;;20.20;65.20;;;;;;5038213;28;20029;-65
2021/07/23 01:27:51;;;;;;;3.63;2.45;;;20.20;65.20;;;;;;5046975;28;20025;-65
2021/07/23 01:30:27;;;;;;;4.10;2.25;;;20.20;65.40;;;;;;5038929;28;20565;-65
2021/07/23 01:32:53;;;;;;;3.00;2.33;;;20.20;65.30;;;;;;5032629;28;20105;-65
2021/07/23 01:35:22;;;;;;;4.10;2.35;;;20.20;65.40;;;;;;5041674;28;20029;-65
2021/07/23 01:37:48;;;;;;;5.07;2.45;;;20.10;65.60;;;;;;5043064;28;20029;-65
2021/07/23 01:40:15;;;;;;;5.03;2.38;;;20.10;65.60;;;;;;5034959;28;20075;-65
2021/07/23 01:42:43;;;;;;;3.58;2.22;;;20.10;65.70;;;;;;5037711;28;20026;-65
2021/07/23 01:45:09;;;;;;;3.50;2.55;;;20.10;66.30;;;;;;5048560;28;20103;-65
2021/07/23 01:47:35;;;;;;;4.60;2.30;;;20.10;66.40;;;;;;5033711;28;20028;-65
2021/07/23 01:50:01;;;;;;;4.13;2.45;;;20.00;65.70;;;;;;5035237;28;20033;-65
2021/07/23 01:52:27;;;;;;;3.30;2.53;;;20.00;65.90;;;;;;5035295;28;20068;-65
2021/07/23 01:54:52;;;;;;;4.22;2.50;;;20.00;65.70;;;;;;5044045;28;20142;-65
2021/07/23 01:57:18;;;;;;;5.70;2.67;;;20.00;65.70;;;;;;5037334;28;20057;-65
2021/07/23 01:59:44;;;;;;;3.28;2.60;;;20.00;65.90;;;;;;5045361;28;20036;-65
2021/07/23 02:02:10;;;;;;;2.92;2.65;;;20.00;65.90;;;;;;5051694;28;20037;-65
2021/07/23 02:04:36;;;;;;;3.72;2.40;;;20.00;66.00;;;;;;5034342;28;20488;-65
2021/07/23 02:07:02;;;;;;;2.83;2.53;;;20.00;66.00;;;;;;5039186;28;20040;-65
2021/07/23 02:09:27;;;;;;;3.75;2.80;;;20.00;66.10;;;;;;5043610;28;20021;-65
2021/07/23 02:11:53;;;;;;;4.25;2.75;;;20.00;66.00;;;;;;5046236;28;20023;-65
2021/07/23 02:14:19;;;;;;;4.15;2.53;;;20.00;66.30;;;;;;5032032;28;20025;-65
2021/07/23 02:16:45;;;;;;;4.53;2.60;;;20.00;66.50;;;;;;5050238;28;20021;-65
2021/07/23 02:19:10;;;;;;;3.78;3.00;;;19.90;66.50;;;;;;5038472;28;20029;-65
2021/07/23 02:21:36;;;;;;;6.03;3.00;;;19.90;66.50;;;;;;5043180;28;20470;-65
2021/07/23 02:24:03;;;;;;;4.60;2.65;;;19.90;66.40;;;;;;5034803;28;20104;-65
2021/07/23 02:26:29;;;;;;;3.47;2.60;;;19.90;66.40;;;;;;5032134;28;20393;-65
2021/07/23 02:28:56;;;;;;;2.97;2.50;;;20.00;66.60;;;;;;5043272;28;20025;-65
2021/07/23 02:31:23;;;;;;;5.05;2.70;;;20.00;66.50;;;;;;5043690;28;20034;-65
2021/07/23 02:33:48;;;;;;;5.97;3.22;;;20.00;67.30;;;;;;5040769;28;20112;-65
2021/07/23 02:36:14;;;;;;;2.85;2.38;;;20.00;66.80;;;;;;5042276;28;20061;-65
2021/07/23 02:38:40;;;;;;;3.83;2.72;;;20.00;66.60;;;;;;5041814;28;20061;-65
2021/07/23 02:41:05;;;;;;;3.72;2.85;;;20.00;66.80;;;;;;5028664;28;20389;-65
2021/07/23 02:43:31;;;;;;;3.15;2.45;;;20.00;67.00;;;;;;5013861;28;20037;-65
2021/07/23 02:45:57;;;;;;;4.70;2.70;;;20.00;66.80;;;;;;5025861;28;20473;-65
2021/07/23 02:48:22;;;;;;;3.00;2.60;;;20.00;66.80;;;;;;5049794;28;20473;-65
2021/07/23 02:50:48;;;;;;;3.92;2.92;;;20.00;66.80;;;;;;5033220;28;20051;-65
2021/07/23 02:53:16;;;;;;;4.32;2.60;;;20.00;66.70;;;;;;5039479;28;20174;-65
2021/07/23 02:55:41;;;;;;;4.85;2.65;;;20.10;66.70;;;;;;5041330;28;20135;-65
2021/07/23 02:58:07;;;;;;;5.47;2.70;;;20.10;66.80;;;;;;5034353;28;20112;-65
2021/07/23 03:00:32;;;;;;;5.82;2.70;;;20.10;66.60;;;;;;5048464;28;20026;-65
2021/07/23 03:03:01;;;;;;;4.28;2.70;;;20.10;66.70;;;;;;5048346;28;20113;-65
2021/07/23 03:05:27;;;;;;;3.80;2.78;;;20.20;66.70;;;;;;5035832;28;20029;-65
2021/07/23 03:07:53;;;;;;;2.38;2.17;;;20.10;66.50;;;;;;5044676;28;20033;-57
2021/07/23 03:10:19;;;;;;;2.70;2.40;;;20.20;67.90;;;;;;5042512;28;20037;-56
2021/07/23 03:12:44;;;;;;;2.80;2.30;;;20.30;68.70;;;;;;5055041;28;20099;-56
2021/07/23 03:15:11;;;;;;;3.25;2.50;;;20.40;68.60;;;;;;5043882;28;20024;-56
2021/07/23 03:17:37;;;;;;;3.30;2.55;;;20.60;68.10;;;;;;5048635;28;20029;-53
2021/07/23 03:20:03;;;;;;;3.47;2.60;;;20.80;67.70;;;;;;5056766;28;20104;-55
2021/07/23 03:22:29;;;;;;;2.90;2.58;;;21.10;66.70;;;;;;5039439;28;20033;-56
2021/07/23 03:24:55;;;;;;;3.08;2.50;;;21.30;66.10;;;;;;5037191;28;20064;-55
2021/07/23 03:27:22;;;;;;;4.45;2.30;;;21.50;65.50;;;;;;5043960;28;20028;-55
2021/07/23 03:29:47;;;;;;;3.08;2.25;;;21.70;65.20;;;;;;5046096;28;20034;-56
2021/07/23 03:32:13;;;;;;;4.18;2.65;;;21.90;64.50;;;;;;5038881;28;20037;-53
2021/07/23 03:34:39;;;;;;;3.92;2.45;;;22.10;64.10;;;;;;5043383;28;20029;-56
2021/07/23 03:37:05;;;;;;;3.83;2.53;;;22.40;63.60;;;;;;5045473;28;20045;-55
2021/07/23 03:39:30;;;;;;;2.47;2.28;;;22.60;63.10;;;;;;5041069;28;20051;-52
2021/07/23 03:41:56;;;;;;;4.28;2.17;;;22.80;62.50;;;;;;5031943;28;20025;-55
2021/07/23 03:44:22;;;;;;;3.38;2.25;;;23.10;61.90;;;;;;5041336;28;20038;-52
2021/07/23 03:46:47;;;;;;;2.83;2.45;;;23.40;61.50;;;;;;5049072;28;20071;-55
2021/07/23 03:49:13;;;;;;;2.35;2.10;;;23.70;60.70;;;;;;5030606;28;20476;-54
2021/07/23 03:51:39;;;;;;;3.40;2.20;;;24.10;60.00;;;;;;5027714;28;20465;-55
2021/07/23 03:54:04;;;;;;;2.72;2.20;;;24.60;59.00;;;;;;5026171;28;20029;-55
2021/07/23 03:56:30;;;;;;;2.28;2.08;;;25.20;58.20;;;;;;5031530;28;20092;-54
2021/07/23 03:58:56;;;;;;;2.53;2.17;;;25.80;57.00;;;;;;5028783;28;20037;-56
2021/07/23 04:01:22;;;;;;;3.63;2.33;;;26.50;56.00;;;;;;5029927;28;20065;-55
2021/07/23 04:03:47;;;;;;;2.47;2.05;;;27.30;54.60;;;;;;5028237;28;20062;-56
2021/07/23 04:06:13;;;;;;;2.45;2.10;;;28.20;53.20;;;;;;5033780;28;20105;-54
2021/07/23 04:08:40;;;;;;;4.53;2.15;;;29.10;51.80;;;;;;5035593;28;20053;-56
2021/07/23 04:11:06;;;;;;;4.13;2.40;;;29.90;50.30;;;;;;5034338;28;20033;-52
2021/07/23 04:13:32;;;;;;;4.28;2.38;;;30.70;49.10;;;;;;5035770;28;20071;-55
2021/07/23 04:15:57;;;;;;;2.45;2.05;;;31.50;48.00;;;;;;5047348;28;20112;-51
2021/07/23 04:18:23;;;;;;;7.00;2.50;;;32.20;46.80;;;;;;5039802;28;20026;-53
2021/07/23 04:20:49;;;;;;;5.97;2.40;;;32.90;46.00;;;;;;5034632;28;20045;-53
2021/07/23 04:23:14;;;;;;;4.82;2.38;;;33.60;45.20;;;;;;5031538;28;20108;-52
2021/07/23 04:25:40;;;;;;;3.55;2.08;;;34.20;44.50;;;;;;5038484;28;20025;-55
2021/07/23 04:28:06;;;;;;;4.50;2.30;;;34.70;43.70;;;;;;5049746;28;20061;-55
2021/07/23 04:30:33;;;;;;;3.30;2.50;;;35.20;43.10;;;;;;5042300;28;20033;-56
2021/07/23 04:32:58;;;;;;;8.15;2.95;;;35.70;42.40;;;;;;5038749;28;20025;-56
2021/07/23 04:35:24;;;;;;;6.75;2.80;;;36.20;42.00;;;;;;5044635;28;20025;-53
2021/07/23 04:37:50;;;;;;;18.58;3.22;;;36.70;41.60;;;;;;5027642;28;20026;-54
2021/07/23 04:40:15;;;;;;;10.07;2.78;;;37.00;41.00;;;;;;5031565;28;20029;-55
2021/07/23 04:42:41;;;;;;;6.07;2.72;;;37.50;40.60;;;;;;5046629;28;20065;-56
2021/07/23 04:45:08;;;;;;;4.72;2.35;;;37.90;40.20;;;;;;5040638;28;20053;-55
2021/07/23 04:47:33;;;;;;;5.85;2.70;;;38.30;39.70;;;;;;5032368;28;20041;-53
2021/07/23 04:50:01;;;;;;;4.63;2.58;;;38.60;39.30;;;;;;5030712;28;20505;-55
2021/07/23 04:52:27;;;;;;;3.25;2.10;;;38.90;38.90;;;;;;5033273;28;20044;-54
2021/07/23 04:54:52;;;;;;;5.85;2.40;;;39.10;38.60;;;;;;5031364;28;20032;-54
2021/07/23 04:57:25;;;;;;;2.97;2.33;;;39.30;38.40;;;;;;5039065;28;20021;-57
2021/07/23 04:59:50;;;;;;;3.40;2.45;;;39.40;38.20;;;;;;5034030;28;20030;-55
2021/07/23 05:02:16;;;;;;;3.50;2.30;;;39.60;38.20;;;;;;5034631;28;20056;-56
2021/07/23 05:04:42;;;;;;;3.70;2.42;;;39.70;38.00;;;;;;5035715;28;20070;-55
2021/07/23 05:07:07;;;;;;;2.72;2.38;;;39.80;37.90;;;;;;5035384;28;20075;-54
2021/07/23 05:09:33;;;;;;;3.65;2.22;;;39.90;37.70;;;;;;5033143;28;20021;-57
2021/07/23 05:11:59;;;;;;;3.92;2.50;;;39.90;37.60;;;;;;5034917;28;20054;-55
2021/07/23 05:14:27;;;;;;;2.40;2.20;;;40.10;37.80;;;;;;5031807;28;20025;-57
2021/07/23 05:16:52;;;;;;;4.72;2.30;;;40.20;37.40;;;;;;5033786;28;20033;-56
2021/07/23 05:19:18;;;;;;;5.40;2.70;;;40.30;37.60;;;;;;5041542;28;20037;-57
2021/07/23 05:21:45;;;;;;;3.83;2.50;;;40.40;37.60;;;;;;5044141;28;20060;-57
2021/07/23 05:24:11;;;;;;;3.92;2.70;;;40.40;37.60;;;;;;5034962;28;20028;-57
2021/07/23 05:26:38;;;;;;;3.72;2.92;;;40.40;37.40;;;;;;5037941;28;20034;-56
2021/07/23 05:29:04;;;;;;;2.53;2.30;;;40.40;37.30;;;;;;5036868;28;20025;-57
2021/07/23 05:31:30;;;;;;;4.47;2.70;;;40.20;37.00;;;;;;5039167;28;20022;-57
2021/07/23 05:34:01;;;;;;;2.90;2.40;;;39.80;37.40;;;;;;5037726;28;20029;-57
2021/07/23 05:36:27;;;;;;;2.33;2.13;;;39.00;37.90;;;;;;5034019;28;20038;-56
2021/07/23 05:38:53;;;;;;;3.65;2.60;;;38.00;39.00;;;;;;5040532;28;20034;-56
2021/07/23 05:41:19;;;;;;;3.67;2.78;;;37.00;40.30;;;;;;5038767;28;20025;-57
2021/07/23 05:43:45;;;;;;;2.90;2.60;;;36.00;41.60;;;;;;5038623;28;20090;-55
2021/07/23 05:46:11;;;;;;;3.00;2.55;;;35.10;42.80;;;;;;5038950;28;20080;-57
2021/07/23 05:48:38;;;;;;;4.05;3.00;;;34.20;43.50;;;;;;5034375;28;20037;-57
2021/07/23 05:51:05;;;;;;;4.15;2.70;;;33.40;44.60;;;;;;5037852;28;20033;-57
2021/07/23 05:53:31;;;;;;;4.30;2.92;;;32.70;45.30;;;;;;5034267;28;20436;-57
2021/07/23 05:56:00;;;;;;;3.83;2.80;;;32.00;46.00;;;;;;5037756;28;20029;-57
2021/07/23 05:58:30;;;;;;;2.83;2.50;;;31.50;46.80;;;;;;5039850;28;20889;-54
2021/07/23 06:00:57;;;;;;;3.70;2.70;;;31.00;47.20;;;;;;5036179;28;20029;-56
2021/07/23 06:03:23;;;;;;;3.13;2.60;;;30.60;47.70;;;;;;5042018;28;20048;-56
2021/07/23 06:05:49;;;;;;;4.00;3.13;;;30.30;48.20;;;;;;5030911;28;20035;-56
2021/07/23 06:08:15;;;;;;;4.85;2.50;;;30.00;48.70;;;;;;5036908;28;20056;-57
2021/07/23 06:10:41;;;;;;;2.83;2.45;;;29.80;49.20;;;;;;5034316;28;20038;-57
2021/07/23 06:13:08;;;;;;;3.63;2.42;;;29.50;49.50;;;;;;5030828;28;20092;-55
2021/07/23 06:15:35;;;;;;;2.60;2.35;;;29.30;49.90;;;;;;5037726;28;20076;-56
2021/07/23 06:18:00;;;;;;;2.92;2.60;;;29.10;49.90;;;;;;5036354;28;20052;-55
2021/07/23 06:20:26;;;;;;;3.13;2.58;;;28.90;50.20;;;;;;5028824;28;20049;-57
2021/07/23 06:22:55;;;;;;;4.20;2.30;;;28.80;50.60;;;;;;5031793;28;20033;-55
2021/07/23 06:25:22;;;;;;;4.50;2.70;;;28.60;50.80;;;;;;5036681;28;20021;-56
2021/07/23 06:27:48;;;;;;;5.15;3.10;;;28.50;51.00;;;;;;5034551;28;20714;-56
2021/07/23 06:30:14;;;;;;;3.50;2.58;;;28.40;51.10;;;;;;5034639;28;20029;-57
2021/07/23 06:32:40;;;;;;;4.30;2.42;;;28.30;51.20;;;;;;5035025;28;20037;-55
2021/07/23 06:35:06;;;;;;;3.95;2.35;;;28.20;51.40;;;;;;5033540;28;20093;-56
2021/07/23 06:37:31;;;;;;;3.63;2.53;;;28.10;51.60;;;;;;5037094;28;20021;-57
2021/07/23 06:39:57;;;;;;;2.95;2.55;;;28.00;51.60;;;;;;5037017;28;20041;-56
2021/07/23 06:42:24;;;;;;;2.50;2.30;;;28.00;51.90;;;;;;5034920;28;20164;-56
2021/07/23 06:44:50;;;;;;;4.63;2.40;;;27.90;52.10;;;;;;5034254;28;20059;-57
2021/07/23 06:47:17;;;;;;;2.75;2.47;;;27.80;52.10;;;;;;5036651;28;20044;-56
2021/07/23 06:49:43;;;;;;;3.72;2.50;;;27.80;52.60;;;;;;5039972;28;20061;-56
2021/07/23 06:52:08;;;;;;;5.32;2.30;;;27.70;52.50;;;;;;5039899;28;20025;-56
2021/07/23 06:54:37;;;;;;;4.15;2.72;;;27.70;52.70;;;;;;5036859;28;20086;-57
2021/07/23 06:57:04;;;;;;;3.15;2.58;;;27.60;52.60;;;;;;5035228;28;20026;-56
2021/07/23 06:59:31;;;;;;;3.78;2.78;;;27.60;52.70;;;;;;5037900;28;20029;-57
2021/07/23 07:01:59;;;;;;;2.83;2.30;;;27.50;52.70;;;;;;5035126;28;20497;-56
2021/07/23 07:04:25;;;;;;;4.40;2.40;;;27.50;52.70;;;;;;5036919;28;20021;-57
2021/07/23 07:06:56;;;;;;;3.33;2.58;;;27.50;52.80;;;;;;5036945;28;20382;-56
2021/07/23 07:09:23;;;;;;;4.78;2.35;;;27.50;52.70;;;;;;5036125;28;20044;-56
2021/07/23 07:11:50;;;;;;;3.67;2.30;;;27.40;52.70;;;;;;5038524;28;20014;-56
2021/07/23 07:14:15;;;;;;;3.95;2.42;;;27.40;52.60;;;;;;5027436;28;20025;-56
2021/07/23 07:16:41;;;;;;;3.22;2.50;;;27.40;52.50;;;;;;5030137;28;20026;-56
2021/07/23 07:19:06;;;;;;;3.00;2.45;;;27.40;52.50;;;;;;5034386;28;20072;-57
2021/07/23 07:21:32;;;;;;;2.83;2.40;;;27.40;52.40;;;;;;5032651;28;20053;-56
2021/07/23 07:24:00;;;;;;;5.28;2.33;;;27.40;52.50;;;;;;5034882;28;20103;-56
2021/07/23 07:26:27;;;;;;;4.25;2.22;;;27.30;52.40;;;;;;5030178;28;20052;-56
2021/07/23 07:28:53;;;;;;;4.10;2.20;;;27.30;52.40;;;;;;5030192;28;20053;-56
2021/07/23 07:31:18;;;;;;;2.60;2.20;;;27.30;52.40;;;;;;5032774;28;20465;-56
2021/07/23 07:33:44;;;;;;;3.80;2.20;;;27.30;52.50;;;;;;5034813;28;21418;-56
2021/07/23 07:36:17;;;;;;;4.68;2.35;;;27.20;52.40;;;;;;5028297;28;20022;-56
2021/07/23 07:38:46;;;;;;;2.60;2.22;;;27.20;52.30;;;;;;5038289;28;20026;-56
2021/07/23 07:41:19;;;;;;;4.50;2.30;;;27.20;52.20;;;;;;5033039;28;20025;-56
2021/07/23 07:43:46;;;;;;;4.13;2.25;;;27.10;52.40;;;;;;5034750;28;20025;-56
2021/07/23 07:46:12;;;;;;;4.75;2.40;;;27.10;52.20;;;;;;5032506;28;20072;-55
2021/07/23 07:48:38;;;;;;;5.15;2.22;;;27.10;52.30;;;;;;5033490;28;20653;-56
2021/07/23 07:51:04;;;;;;;3.60;2.42;;;27.10;52.50;;;;;;5030032;28;20029;-57
2021/07/23 07:53:30;;;;;;;4.25;2.70;;;27.10;52.60;;;;;;5032807;28;20149;-56
2021/07/23 07:55:55;;;;;;;2.70;2.00;;;27.10;52.60;;;;;;5031731;28;20079;-56
2021/07/23 07:58:21;;;;;;;2.63;2.17;;;27.10;52.50;;;;;;5034188;28;20041;-55
2021/07/23 08:00:47;;;;;;;4.00;2.40;;;27.10;52.40;;;;;;5027516;28;20057;-55
2021/07/23 08:03:13;;;;;;;4.68;2.40;;;27.00;52.30;;;;;;5026017;28;20032;-55
2021/07/23 08:05:39;;;;;;;3.20;1.95;;;27.00;52.00;;;;;;5015697;28;20060;-56
2021/07/23 08:08:08;;;;;;;2.95;2.22;;;27.00;52.10;;;;;;5033515;28;20503;-56
2021/07/23 08:10:36;;;;;;;3.67;2.28;;;27.00;52.00;;;;;;5036923;28;20448;-55
2021/07/23 08:13:03;;;;;;;3.97;2.30;;;27.00;52.40;;;;;;5029481;28;20029;-54
2021/07/23 08:15:29;;;;;;;4.53;2.08;;;27.00;51.80;;;;;;5031439;28;20061;-56
2021/07/23 08:17:54;;;;;;;3.72;2.22;;;27.00;51.60;;;;;;5033731;28;20028;-56
2021/07/23 08:20:20;;;;;;;5.28;2.20;;;27.00;51.30;;;;;;5023744;28;20770;-56
2021/07/23 08:22:46;;;;;;;3.95;2.45;;;27.00;51.40;;;;;;5034692;28;20053;-56
2021/07/23 08:25:12;;;;;;;2.97;2.17;;;26.90;51.30;;;;;;5029918;28;20093;-55
2021/07/23 08:27:38;;;;;;;2.88;2.00;;;27.00;51.20;;;;;;5035341;28;20065;-56
2021/07/23 08:30:07;;;;;;;1.92;1.75;;;26.90;50.80;;;;;;5034446;28;20091;-56
2021/07/23 08:32:36;;;;;;;3.00;2.00;;;26.90;50.80;;;;;;5026548;28;20031;-56
2021/07/23 08:35:03;;;;;;;4.88;2.15;;;26.90;50.60;;;;;;5028919;28;20040;-57
2021/07/23 08:37:29;;;;;;;2.80;1.90;;;26.90;50.70;;;;;;5028232;28;20029;-56
2021/07/23 08:39:55;;;;;;;3.50;2.03;;;26.80;50.60;;;;;;5034486;28;20326;-56
2021/07/23 08:42:24;;;;;;;2.08;1.80;;;26.80;50.80;;;;;;5032017;28;20117;-56
2021/07/23 08:44:50;;;;;;;3.30;1.98;;;26.80;50.80;;;;;;5038521;28;20089;-56
2021/07/23 08:47:16;;;;;;;2.70;1.60;;;26.80;50.10;;;;;;5033742;28;20098;-56
2021/07/23 08:49:42;;;;;;;2.97;2.00;;;26.80;50.00;;;;;;5036874;28;20049;-55
2021/07/23 08:52:07;;;;;;;1.92;1.73;;;26.80;50.10;;;;;;5034991;28;20064;-56
2021/07/23 08:54:33;;;;;;;2.85;2.00;;;26.70;50.00;;;;;;5033768;28;20494;-56
2021/07/23 08:56:59;;;;;;;2.75;1.90;;;26.70;50.00;;;;;;5028611;28;20072;-56
2021/07/23 08:59:24;;;;;;;1.90;1.67;;;26.70;50.10;;;;;;5029113;28;20029;-56
2021/07/23 09:02:06;;;;;;;4.18;1.70;;;26.70;50.10;;;;;;5022042;28;20021;-55
2021/07/23 09:04:37;;;;;;;2.40;1.90;;;26.70;50.00;;;;;;5034176;28;20025;-56
2021/07/23 09:07:12;;;;;;;2.53;1.65;;;26.60;50.10;;;;;;5027548;28;20098;-54
2021/07/23 09:09:38;;;;;;;2.58;1.45;;;26.60;50.10;;;;;;5026836;28;20026;-54
2021/07/23 09:12:04;;;;;;;2.03;1.77;;;26.60;50.10;;;;;;5020326;28;20052;-56
2021/07/23 09:14:30;;;;;;;2.08;1.60;;;26.60;49.90;;;;;;5028269;28;20028;-55
2021/07/23 09:16:56;;;;;;;1.65;1.55;;;26.50;49.70;;;;;;5027056;28;20033;-56
2021/07/23 09:19:21;;;;;;;2.53;1.70;;;26.50;50.00;;;;;;5027641;28;20678;-56
2021/07/23 09:21:58;;;;;;;2.42;1.70;;;26.50;49.80;;;;;;5030531;28;20049;-56
2021/07/23 09:24:24;;;;;;;2.65;1.48;;;26.50;49.90;;;;;;5027796;28;20029;-55
2021/07/23 09:26:50;;;;;;;2.10;1.52;;;26.50;50.00;;;;;;5025387;28;20037;-56
2021/07/23 09:29:16;;;;;;;2.20;1.30;;;26.40;50.20;;;;;;5025225;28;20075;-56
2021/07/23 09:32:05;;;;;;;2.97;1.73;;;26.40;50.00;;;;;;5034117;28;20763;-56
2021/07/23 09:34:31;;;;;;;3.63;1.65;;;26.40;50.10;;;;;;5030919;28;20093;-56
2021/07/23 09:37:10;;;;;;;2.22;1.50;;;26.40;49.80;;;;;;5028987;28;20218;-56
2021/07/23 09:39:38;;;;;;;2.08;1.63;;;26.40;49.70;;;;;;5026560;28;20084;-56
2021/07/23 09:42:04;;;;;;;1.98;1.77;;;26.40;49.50;;;;;;5034452;28;20061;-54
2021/07/23 09:44:30;;;;;;;2.00;1.45;;;26.40;49.90;;;;;;5031658;28;20091;-56
2021/07/23 09:46:55;;;;;;;3.00;2.00;;;26.40;50.00;;;;;;5034698;28;20033;-56
2021/07/23 09:49:23;;;;;;;3.72;1.92;;;26.40;50.20;;;;;;5030139;28;20079;-55
2021/07/23 09:51:50;;;;;;;2.47;1.70;;;26.40;50.20;;;;;;5038433;28;20026;-56
2021/07/23 09:54:15;;;;;;;2.92;1.90;;;26.40;50.20;;;;;;5031072;28;20029;-56
2021/07/23 09:56:43;;;;;;;2.78;2.50;;;26.40;50.20;;;;;;5029330;28;20043;-55
2021/07/23 09:59:24;;;;;;;1.65;1.55;;;26.40;50.10;;;;;;5029458;28;20116;-57
2021/07/23 10:01:54;;;;;;;3.20;1.83;;;26.40;50.10;;;;;;5022085;28;20059;-54
2021/07/23 10:04:48;;;;;;;2.90;1.90;;;26.40;50.10;;;;;;5025248;28;20101;-55
2021/07/23 10:07:20;;;;;;;4.47;1.98;;;26.40;50.10;;;;;;5024907;28;20064;-56
2021/07/23 10:09:47;;;;;;;2.92;1.80;;;26.40;50.20;;;;;;5027474;28;20052;-55
2021/07/23 10:12:16;;;;;;;2.67;1.75;;;26.40;50.00;;;;;;5025069;28;20021;-56
2021/07/23 10:14:45;;;;;;;2.88;1.73;;;26.40;50.10;;;;;;5030670;28;20029;-57
2021/07/23 10:17:12;;;;;;;2.38;1.98;;;26.40;50.00;;;;;;5029423;28;20041;-56
2021/07/23 10:19:39;;;;;;;1.80;1.70;;;26.40;50.10;;;;;;5029262;28;20033;-56
2021/07/23 10:22:05;;;;;;;3.08;1.80;;;26.40;49.80;;;;;;5027148;28;20050;-55
2021/07/23 10:24:33;;;;;;;2.70;1.80;;;26.40;50.00;;;;;;5027791;28;20041;-56
2021/07/23 10:27:06;;;;;;;5.80;1.90;;;26.40;49.80;;;;;;5036305;28;20057;-56
2021/07/23 10:29:52;;;;;;;1.77;1.60;;;26.30;49.70;;;;;;5036370;28;20096;-57
2021/07/23 10:32:26;;;;;;;2.58;1.60;;;26.30;49.80;;;;;;5032243;28;20029;-56
2021/07/23 10:34:53;;;;;;;2.60;2.25;;;26.30;49.90;;;;;;5033422;28;20025;-57
2021/07/23 10:37:32;;;;;;;2.58;2.00;;;26.30;50.10;;;;;;5033866;28;20075;-56
2021/07/23 10:40:11;;;;;;;2.10;1.90;;;26.30;49.90;;;;;;5029859;28;20051;-55
2021/07/23 10:42:44;;;;;;;2.00;1.83;;;26.30;50.00;;;;;;5028546;28;20133;-55
2021/07/23 10:45:21;;;;;;;2.13;1.60;;;26.30;49.40;;;;;;5027613;28;20039;-56
2021/07/23 10:47:48;;;;;;;2.50;2.13;;;26.30;49.90;;;;;;5033350;28;20028;-56
2021/07/23 10:50:20;;;;;;;2.25;1.95;;;26.20;49.90;;;;;;5031170;28;20033;-56
2021/07/23 10:52:45;;;;;;;2.67;1.88;;;26.20;50.00;;;;;;5030647;28;20040;-56
2021/07/23 10:55:13;;;;;;;2.97;1.90;;;26.20;50.30;;;;;;5035173;28;20022;-55
2021/07/23 10:57:40;;;;;;;2.05;1.85;;;26.20;50.40;;;;;;5028315;28;20044;-56
2021/07/23 11:00:07;;;;;;;2.03;1.88;;;26.30;51.00;;;;;;5023420;28;20065;-56
2021/07/23 11:02:33;;;;;;;4.18;1.98;;;26.20;50.10;;;;;;5027884;28;20048;-53
2021/07/23 11:05:09;;;;;;;3.85;1.92;;;26.30;50.50;;;;;;5029033;28;20040;-57
2021/07/23 11:07:36;;;;;;;2.25;1.80;;;26.30;50.50;;;;;;5030015;28;20038;-56
2021/07/23 11:10:03;;;;;;;2.83;1.73;;;26.20;50.40;;;;;;5025177;28;20026;-54
2021/07/23 11:12:39;;;;;;;2.92;1.73;;;26.20;50.30;;;;;;5033165;28;20029;-56
2021/07/23 11:15:07;;;;;;;3.10;2.30;;;26.20;50.30;;;;;;5035361;28;20025;-55
2021/07/23 11:17:45;;;;;;;3.05;2.03;;;26.20;50.40;;;;;;5030784;28;20040;-55
2021/07/23 11:20:11;;;;;;;1.83;1.58;;;26.20;50.70;;;;;;5029898;28;20045;-56
2021/07/23 11:22:37;;;;;;;2.78;1.70;;;26.20;50.90;;;;;;5025022;28;20055;-56
2021/07/23 11:25:05;;;;;;;4.85;2.00;;;26.20;50.90;;;;;;5029493;28;20026;-56
2021/07/23 11:27:34;;;;;;;2.25;1.70;;;26.30;51.40;;;;;;5034015;28;20029;-56
2021/07/23 11:30:12;;;;;;;1.85;1.75;;;26.30;50.90;;;;;;5035280;28;20034;-56
2021/07/23 11:32:57;;;;;;;2.40;1.63;;;26.30;50.70;;;;;;5030962;28;20114;-55
2021/07/23 11:35:25;;;;;;;1.58;1.48;;;26.30;50.60;;;;;;5031259;28;20056;-54
2021/07/23 11:37:51;;;;;;;2.80;1.95;;;26.40;50.70;;;;;;5019090;28;20033;-56
2021/07/23 11:40:19;;;;;;;2.67;1.80;;;26.40;50.70;;;;;;5018478;28;20044;-56
2021/07/23 11:42:56;;;;;;;1.77;1.55;;;26.40;50.80;;;;;;5021488;28;20053;-55
2021/07/23 11:45:34;;;;;;;2.45;1.75;;;26.40;50.50;;;;;;5021328;28;20917;-55
2021/07/23 11:48:13;;;;;;;4.28;1.80;;;26.50;50.60;;;;;;5020033;28;20038;-56
2021/07/23 11:50:50;;;;;;;2.17;1.63;;;26.50;50.60;;;;;;5016896;28;20037;-55
2021/07/23 11:53:16;;;;;;;2.50;1.80;;;26.50;50.50;;;;;;5024579;28;20034;-57
2021/07/23 11:55:43;;;;;;;2.58;1.90;;;26.50;50.40;;;;;;5024356;28;20030;-57
2021/07/23 11:58:20;;;;;;;2.60;1.80;;;26.50;50.40;;;;;;5029105;28;20033;-57
2021/07/23 12:00:46;;;;;;;2.97;2.00;;;26.50;50.50;;;;;;5022106;28;20034;-56
2021/07/23 12:03:22;;;;;;;2.53;1.80;;;26.50;50.30;;;;;;5023643;28;20132;-57
2021/07/23 12:05:48;;;;;;;1.73;1.63;;;26.60;50.50;;;;;;5018507;28;20426;-56
2021/07/23 12:08:16;;;;;;;2.63;1.63;;;26.60;50.40;;;;;;5015840;28;20185;-57
2021/07/23 12:10:42;;;;;;;1.88;1.77;;;26.60;50.30;;;;;;5025597;28;20100;-55
2021/07/23 12:13:10;;;;;;;2.83;1.67;;;26.60;50.30;;;;;;5021229;28;20029;-56
2021/07/23 12:15:54;;;;;;;2.88;1.85;;;26.60;50.40;;;;;;5016432;28;20029;-58
2021/07/23 12:18:21;;;;;;;2.28;1.90;;;26.70;50.20;;;;;;5017098;28;20037;-57
2021/07/23 12:20:48;;;;;;;2.40;1.85;;;26.60;50.20;;;;;;5016143;28;20080;-57
2021/07/23 12:23:25;;;;;;;2.13;1.90;;;26.70;50.30;;;;;;5022491;28;20029;-58
2021/07/23 12:25:51;;;;;;;1.70;1.60;;;26.70;50.50;;;;;;5019077;28;20050;-55
2021/07/23 12:28:18;;;;;;;1.60;1.50;;;26.70;50.20;;;;;;5025489;28;20072;-57
2021/07/23 12:30:47;;;;;;;2.13;1.88;;;26.70;50.20;;;;;;5032896;28;20064;-56
2021/07/23 12:33:19;;;;;;;2.72;1.40;;;26.70;50.20;;;;;;5031788;28;20029;-56
2021/07/23 12:35:46;;;;;;;1.48;1.33;;;26.70;50.00;;;;;;5030796;28;20026;-58
2021/07/23 12:38:13;;;;;;;2.45;1.88;;;26.70;49.80;;;;;;5031056;28;20052;-56
2021/07/23 12:40:48;;;;;;;2.15;1.48;;;26.70;49.80;;;;;;5023970;28;20037;-58
2021/07/23 12:43:18;;;;;;;1.73;1.63;;;26.70;49.60;;;;;;5026045;28;20056;-58
2021/07/23 12:45:46;;;;;;;2.50;1.50;;;26.80;49.50;;;;;;5019794;28;20029;-57
2021/07/23 12:48:17;;;;;;;3.13;1.60;;;26.70;49.30;;;;;;5019776;28;20400;-57
2021/07/23 12:50:44;;;;;;;1.92;1.50;;;26.70;49.10;;;;;;5021717;28;20110;-56